createdAt,value
2019-01-13T00:01:18.333Z,2.80
2019-01-13T00:03:45.301Z,2.90
2019-01-13T00:06:12.281Z,2.90
2019-01-13T00:08:39.041Z,2.90
2019-01-13T00:11:06.030Z,2.90
2019-01-13T00:13:32.918Z,2.90
2019-01-13T00:15:59.795Z,2.90
2019-01-13T00:18:26.960Z,3.00
2019-01-13T00:20:54.330Z,2.90
2019-01-13T00:23:21.246Z,3.00
2019-01-13T00:25:48.606Z,3.00
2019-01-13T00:28:15.420Z,3.10
2019-01-13T00:30:42.181Z,3.10
2019-01-13T00:33:08.985Z,3.10
2019-01-13T00:35:36.198Z,3.10
2019-01-13T00:38:03.226Z,3.10
2019-01-13T00:40:30.384Z,3.00
2019-01-13T00:42:57.230Z,3.10
2019-01-13T00:45:24.029Z,3.10
2019-01-13T00:47:50.893Z,3.10
2019-01-13T00:50:18.118Z,3.10
2019-01-13T00:52:45.357Z,3.10
2019-01-13T00:55:12.689Z,3.10
2019-01-13T00:57:39.544Z,3.00
2019-01-13T01:00:10.001Z,3.00
2019-01-13T01:02:36.942Z,3.00
2019-01-13T01:05:04.989Z,3.10
2019-01-13T01:07:32.192Z,3.00
2019-01-13T01:09:59.421Z,3.30
2019-01-13T01:12:26.533Z,3.00
2019-01-13T01:14:53.518Z,2.90
2019-01-13T01:17:20.631Z,2.90
2019-01-13T01:19:48.096Z,2.90
2019-01-13T01:22:14.855Z,3.40
2019-01-13T01:24:41.977Z,2.70
2019-01-13T01:27:08.928Z,2.60
2019-01-13T01:29:35.716Z,2.60
2019-01-13T01:32:04.951Z,2.60
2019-01-13T01:34:31.722Z,2.60
2019-01-13T01:36:58.509Z,2.50
2019-01-13T01:39:25.277Z,2.60
2019-01-13T01:41:52.348Z,2.60
2019-01-13T01:44:19.455Z,2.60
2019-01-13T01:46:46.618Z,2.60
2019-01-13T01:49:13.381Z,2.60
2019-01-13T01:51:40.258Z,2.60
2019-01-13T01:54:07.233Z,2.60
2019-01-13T01:56:34.011Z,2.60
2019-01-13T01:59:01.037Z,2.60
2019-01-13T02:01:28.067Z,2.60
2019-01-13T02:03:54.954Z,2.60
2019-01-13T02:06:22.170Z,2.60
2019-01-13T02:08:48.977Z,2.60
2019-01-13T02:11:15.849Z,2.60
2019-01-13T02:13:42.715Z,2.60
2019-01-13T02:16:10.084Z,2.70
2019-01-13T02:18:36.974Z,2.70
2019-01-13T02:21:03.941Z,2.70
2019-01-13T02:23:31.070Z,2.70
2019-01-13T02:25:58.118Z,2.70
2019-01-13T02:28:25.084Z,2.80
2019-01-13T02:30:51.946Z,2.80
2019-01-13T02:33:19.044Z,2.90
2019-01-13T02:35:46.322Z,3.00
2019-01-13T02:38:13.070Z,3.00
2019-01-13T02:40:40.086Z,3.00
2019-01-13T02:43:07.249Z,3.10
2019-01-13T02:45:34.002Z,3.20
2019-01-13T02:48:00.754Z,3.20
2019-01-13T02:50:27.503Z,3.20
2019-01-13T02:52:54.798Z,3.20
2019-01-13T02:55:21.581Z,3.20
2019-01-13T02:57:48.560Z,3.20
2019-01-13T03:00:17.632Z,3.20
2019-01-13T03:02:44.530Z,3.30
2019-01-13T03:05:11.933Z,3.30
2019-01-13T03:07:39.127Z,3.30
2019-01-13T03:10:10.227Z,3.30
2019-01-13T03:12:37.337Z,3.10
2019-01-13T03:15:05.051Z,3.40
2019-01-13T03:17:32.173Z,3.30
2019-01-13T03:19:59.027Z,3.30
2019-01-13T03:22:25.797Z,3.30
2019-01-13T03:24:52.578Z,3.30
2019-01-13T03:27:19.466Z,3.40
2019-01-13T03:29:46.296Z,3.30
2019-01-13T03:32:13.470Z,3.20
2019-01-13T03:34:40.330Z,3.20
2019-01-13T03:37:07.349Z,3.30
2019-01-13T03:39:34.145Z,3.30
2019-01-13T03:42:01.357Z,3.30
2019-01-13T03:44:28.236Z,3.30
2019-01-13T03:46:54.996Z,3.40
2019-01-13T03:49:21.908Z,3.40
2019-01-13T03:51:48.789Z,3.30
2019-01-13T03:54:15.540Z,3.40
2019-01-13T03:56:42.386Z,3.30
2019-01-13T03:59:09.252Z,3.30
2019-01-13T04:01:35.999Z,3.30
2019-01-13T04:04:03.278Z,3.30
2019-01-13T04:06:30.040Z,3.40
2019-01-13T04:08:56.808Z,3.40
2019-01-13T04:11:23.611Z,3.40
2019-01-13T04:13:50.486Z,3.30
2019-01-13T04:16:18.092Z,3.40
2019-01-13T04:18:44.840Z,3.40
2019-01-13T04:21:11.844Z,3.30
2019-01-13T04:23:38.817Z,3.40
2019-01-13T04:26:05.680Z,3.30
2019-01-13T04:28:32.420Z,3.40
2019-01-13T04:30:59.269Z,3.40
2019-01-13T04:33:26.393Z,3.40
2019-01-13T04:35:53.238Z,3.50
2019-01-13T04:38:19.989Z,3.50
2019-01-13T04:40:46.849Z,3.50
2019-01-13T04:43:13.696Z,3.50
2019-01-13T04:45:40.632Z,3.50
2019-01-13T04:48:07.380Z,3.50
2019-01-13T04:50:34.152Z,3.60
2019-01-13T04:53:01.216Z,3.50
2019-01-13T04:55:28.121Z,3.50
2019-01-13T04:57:54.889Z,3.60
2019-01-13T05:00:21.874Z,3.50
2019-01-13T05:02:48.620Z,3.60
2019-01-13T05:05:15.502Z,3.70
2019-01-13T05:07:42.466Z,3.70
2019-01-13T05:10:12.385Z,3.60
2019-01-13T05:12:39.280Z,3.60
2019-01-13T05:15:06.500Z,3.60
2019-01-13T05:17:33.872Z,3.70
2019-01-13T05:20:00.704Z,3.70
2019-01-13T05:22:27.465Z,3.70
2019-01-13T05:24:54.230Z,3.70
2019-01-13T05:27:21.120Z,3.70
2019-01-13T05:29:47.868Z,3.70
2019-01-13T05:32:14.664Z,3.70
2019-01-13T05:34:41.402Z,3.60
2019-01-13T05:37:08.244Z,3.70
2019-01-13T05:39:35.085Z,3.80
2019-01-13T05:42:02.050Z,3.80
2019-01-13T05:44:29.048Z,3.80
2019-01-13T05:46:55.818Z,3.70
2019-01-13T05:49:22.665Z,3.80
2019-01-13T05:51:49.407Z,3.80
2019-01-13T05:54:16.509Z,3.80
2019-01-13T05:56:43.365Z,3.80
2019-01-13T05:59:10.134Z,3.80
2019-01-13T06:01:36.979Z,3.80
2019-01-13T06:04:03.856Z,3.80
2019-01-13T06:06:30.623Z,3.80
2019-01-13T06:08:57.376Z,3.90
2019-01-13T06:11:24.149Z,3.90
2019-01-13T06:13:51.005Z,3.90
2019-01-13T06:16:17.844Z,4.00
2019-01-13T06:18:44.628Z,3.90
2019-01-13T06:21:11.380Z,3.90
2019-01-13T06:23:38.476Z,3.90
2019-01-13T06:26:05.341Z,3.90
2019-01-13T06:28:32.089Z,3.90
2019-01-13T06:30:59.171Z,3.90
2019-01-13T06:33:25.949Z,3.90
2019-01-13T06:35:52.689Z,3.90
2019-01-13T06:38:19.534Z,3.90
2019-01-13T06:40:46.299Z,3.90
2019-01-13T06:43:13.322Z,3.90
2019-01-13T06:45:40.346Z,3.90
2019-01-13T06:48:07.197Z,3.90
2019-01-13T06:50:34.066Z,3.90
2019-01-13T06:53:00.943Z,3.90
2019-01-13T06:55:28.073Z,4.00
2019-01-13T06:57:54.977Z,4.00
2019-01-13T07:00:23.462Z,4.00
2019-01-13T07:02:50.417Z,4.00
2019-01-13T07:05:17.366Z,4.00
2019-01-13T07:07:44.314Z,4.00
2019-01-13T07:10:11.406Z,4.10
2019-01-13T07:12:38.841Z,4.10
2019-01-13T07:15:07.607Z,4.10
2019-01-13T07:17:34.764Z,4.20
2019-01-13T07:20:02.282Z,4.20
2019-01-13T07:22:29.531Z,4.20
2019-01-13T07:24:56.774Z,4.20
2019-01-13T07:27:23.770Z,4.20
2019-01-13T07:29:51.178Z,4.20
2019-01-13T07:32:18.233Z,4.30
2019-01-13T07:34:45.255Z,4.20
2019-01-13T07:37:12.026Z,4.20
2019-01-13T07:39:38.801Z,4.30
2019-01-13T07:42:06.052Z,4.20
2019-01-13T07:44:32.800Z,4.30
2019-01-13T07:46:59.681Z,4.30
2019-01-13T07:49:26.475Z,4.30
2019-01-13T07:51:53.382Z,4.30
2019-01-13T07:54:20.233Z,4.30
2019-01-13T07:56:47.267Z,4.40
2019-01-13T07:59:14.037Z,4.40
2019-01-13T08:01:41.316Z,4.40
2019-01-13T08:04:08.188Z,4.40
2019-01-13T08:06:35.256Z,4.40
2019-01-13T08:09:03.949Z,4.40
2019-01-13T08:11:31.100Z,4.50
2019-01-13T08:13:58.241Z,4.50
2019-01-13T08:16:25.281Z,4.50
2019-01-13T08:18:52.572Z,4.60
2019-01-13T08:21:19.693Z,4.50
2019-01-13T08:23:46.609Z,4.60
2019-01-13T08:26:13.801Z,4.60
2019-01-13T08:28:40.835Z,4.60
2019-01-13T08:31:07.756Z,4.60
2019-01-13T08:33:34.613Z,4.70
2019-01-13T08:36:01.556Z,4.70
2019-01-13T08:38:28.339Z,4.70
2019-01-13T08:40:55.076Z,4.70
2019-01-13T08:43:21.877Z,4.70
2019-01-13T08:45:50.398Z,4.70
2019-01-13T08:48:17.489Z,4.70
2019-01-13T08:50:44.461Z,4.80
2019-01-13T08:53:11.334Z,4.80
2019-01-13T08:55:38.350Z,4.80
2019-01-13T08:58:05.128Z,4.80
2019-01-13T09:00:33.096Z,4.80
2019-01-13T09:03:00.893Z,4.80
2019-01-13T09:05:27.870Z,4.80
2019-01-13T09:07:55.068Z,4.80
2019-01-13T09:10:22.264Z,4.80
2019-01-13T09:12:56.389Z,4.70
2019-01-13T09:15:20.017Z,4.60
2019-01-13T09:17:47.035Z,4.60
2019-01-13T09:20:16.645Z,4.60
2019-01-13T09:22:43.749Z,4.60
2019-01-13T09:25:10.977Z,4.60
2019-01-13T09:27:38.248Z,4.60
2019-01-13T09:30:08.493Z,4.60
2019-01-13T09:32:39.406Z,4.60
2019-01-13T09:35:04.774Z,4.50
2019-01-13T09:37:31.971Z,4.50
2019-01-13T09:39:59.078Z,4.40
2019-01-13T09:42:26.464Z,4.30
2019-01-13T09:44:53.558Z,4.20
2019-01-13T09:47:20.527Z,4.10
2019-01-13T09:49:50.052Z,4.10
2019-01-13T09:52:16.672Z,4.10
2019-01-13T09:54:43.852Z,4.10
2019-01-13T09:57:10.744Z,5.20
2019-01-13T09:59:38.134Z,4.10
2019-01-13T10:02:05.111Z,4.20
2019-01-13T10:04:32.306Z,4.20
2019-01-13T10:06:59.257Z,4.20
2019-01-13T10:09:26.004Z,4.10
2019-01-13T10:11:52.954Z,4.10
2019-01-13T10:14:19.954Z,4.10
2019-01-13T10:16:46.717Z,4.20
2019-01-13T10:19:13.670Z,4.20
2019-01-13T10:21:40.480Z,4.10
2019-01-13T10:24:07.230Z,4.20
2019-01-13T10:26:34.334Z,4.20
2019-01-13T10:29:01.226Z,4.20
2019-01-13T10:31:28.309Z,4.20
2019-01-13T10:33:55.269Z,4.20
2019-01-13T10:36:22.406Z,4.10
2019-01-13T10:38:49.170Z,4.20
2019-01-13T10:41:16.424Z,4.20
2019-01-13T10:43:43.540Z,4.20
2019-01-13T10:46:10.589Z,4.20
2019-01-13T10:48:37.461Z,4.20
2019-01-13T10:51:04.441Z,4.20
2019-01-13T10:53:31.334Z,4.20
2019-01-13T10:55:58.355Z,4.10
2019-01-13T10:58:25.672Z,4.00
2019-01-13T11:00:52.446Z,3.90
2019-01-13T11:03:19.408Z,3.90
2019-01-13T11:05:46.288Z,3.80
2019-01-13T11:08:13.324Z,3.80
2019-01-13T11:10:40.441Z,3.80
2019-01-13T11:13:07.237Z,3.70
2019-01-13T11:15:34.157Z,3.60
2019-01-13T11:18:01.116Z,3.60
2019-01-13T11:20:35.037Z,3.60
2019-01-13T11:23:02.061Z,3.50
2019-01-13T11:25:29.045Z,3.50
2019-01-13T11:27:56.056Z,3.40
2019-01-13T11:30:23.101Z,3.40
2019-01-13T11:32:50.094Z,3.40
2019-01-13T11:35:16.952Z,3.30
2019-01-13T11:37:44.465Z,3.20
2019-01-13T11:40:13.781Z,3.20
2019-01-13T11:42:41.429Z,3.10
2019-01-13T11:45:08.651Z,3.10
2019-01-13T11:47:35.502Z,3.00
2019-01-13T11:50:03.173Z,3.00
2019-01-13T11:52:30.074Z,3.00
2019-01-13T11:54:56.954Z,4.60
2019-01-13T11:57:23.941Z,2.80
2019-01-13T11:59:50.948Z,2.80
2019-01-13T12:02:17.820Z,2.70
2019-01-13T12:04:45.379Z,2.60
2019-01-13T12:07:12.248Z,2.60
2019-01-13T12:09:39.110Z,2.50
2019-01-13T12:12:06.146Z,2.40
2019-01-13T12:14:33.030Z,2.30
2019-01-13T12:17:00.043Z,2.30
2019-01-13T12:19:26.930Z,2.20
2019-01-13T12:21:53.793Z,2.10
2019-01-13T12:24:20.693Z,2.00
2019-01-13T12:26:48.077Z,1.80
2019-01-13T12:31:43.426Z,1.80
2019-01-13T12:34:10.272Z,1.80
2019-01-13T12:36:37.245Z,1.80
2019-01-13T12:39:08.759Z,1.90
2019-01-13T12:41:35.526Z,1.90
2019-01-13T12:44:03.107Z,2.00
2019-01-13T12:46:30.101Z,2.00
2019-01-13T12:48:56.916Z,2.00
2019-01-13T12:51:23.916Z,2.00
2019-01-13T12:53:50.748Z,2.10
2019-01-13T12:56:18.013Z,2.20
2019-01-13T12:58:45.081Z,2.20
2019-01-13T13:03:39.458Z,2.20
2019-01-13T13:06:06.479Z,2.40
2019-01-13T13:08:33.473Z,2.40
2019-01-13T13:13:28.170Z,2.40
2019-01-13T13:15:55.189Z,2.50
2019-01-13T13:18:22.370Z,2.50
2019-01-13T13:20:51.765Z,2.50
2019-01-13T13:23:20.730Z,2.50
2019-01-13T13:25:48.058Z,2.60
2019-01-13T13:28:15.055Z,2.70
2019-01-13T13:33:10.893Z,2.80
2019-01-13T13:35:40.407Z,2.80
2019-01-13T13:40:34.685Z,2.90
2019-01-13T13:43:01.692Z,3.00
2019-01-13T13:45:28.606Z,3.00
2019-01-13T13:47:55.677Z,3.00
2019-01-13T13:50:24.183Z,3.00
2019-01-13T13:52:51.762Z,3.00
2019-01-13T13:55:18.732Z,2.40
2019-01-13T13:57:45.951Z,3.00
2019-01-13T14:00:23.889Z,3.10
2019-01-13T14:02:51.302Z,3.10
2019-01-13T14:05:18.334Z,3.20
2019-01-13T14:07:45.223Z,3.20
2019-01-13T14:10:25.895Z,3.30
2019-01-13T14:12:53.928Z,3.30
2019-01-13T14:17:48.554Z,3.30
2019-01-13T14:20:16.150Z,3.40
2019-01-13T14:22:43.380Z,3.40
2019-01-13T14:25:10.767Z,3.40
2019-01-13T14:27:37.516Z,3.40
2019-01-13T14:30:07.693Z,3.70
2019-01-13T14:32:34.548Z,3.50
2019-01-13T14:35:01.785Z,3.40
2019-01-13T14:37:28.649Z,3.50
2019-01-13T14:39:55.656Z,3.50
2019-01-13T14:42:22.773Z,3.50
2019-01-13T14:44:50.336Z,3.60
2019-01-13T14:47:17.816Z,3.60
2019-01-13T14:49:44.601Z,3.60
2019-01-13T14:52:12.217Z,3.70
2019-01-13T14:54:39.099Z,3.70
2019-01-13T14:57:06.108Z,3.80
2019-01-13T14:59:33.286Z,3.80
2019-01-13T15:02:00.187Z,3.80
2019-01-13T15:04:26.989Z,3.90
2019-01-13T15:06:54.110Z,4.00
2019-01-13T15:09:20.975Z,3.90
2019-01-13T15:11:47.961Z,4.00
2019-01-13T15:14:14.870Z,4.10
2019-01-13T15:16:42.108Z,4.10
2019-01-13T15:19:09.534Z,4.10
2019-01-13T15:21:36.492Z,4.20
2019-01-13T15:24:03.637Z,4.30
2019-01-13T15:26:30.487Z,4.30
2019-01-13T15:28:57.690Z,4.40
2019-01-13T15:31:24.502Z,4.50
2019-01-13T15:33:51.305Z,4.60
2019-01-13T15:36:18.334Z,4.70
2019-01-13T15:38:45.222Z,4.80
2019-01-13T15:41:13.867Z,4.80
2019-01-13T15:43:41.184Z,4.80
2019-01-13T15:46:08.062Z,4.90
2019-01-13T15:48:34.814Z,5.20
2019-01-13T15:51:01.730Z,5.30
2019-01-13T15:53:28.547Z,5.40
2019-01-13T15:55:55.729Z,5.60
2019-01-13T15:58:22.721Z,5.80
2019-01-13T16:00:49.468Z,5.80
2019-01-13T16:03:16.428Z,6.00
2019-01-13T16:05:43.296Z,6.00
2019-01-13T16:08:10.129Z,6.20
2019-01-13T16:13:04.695Z,6.30
2019-01-13T16:18:00.489Z,6.40
2019-01-13T16:20:35.313Z,6.40
2019-01-13T16:25:29.397Z,6.50
2019-01-13T16:27:56.287Z,6.60
2019-01-13T16:30:24.034Z,6.60
2019-01-13T16:32:51.249Z,6.60
2019-01-13T16:35:18.445Z,6.70
2019-01-13T16:37:45.584Z,6.70
2019-01-13T16:40:14.449Z,6.60
2019-01-13T16:42:41.869Z,6.70
2019-01-13T16:45:09.676Z,6.80
2019-01-13T16:47:37.104Z,6.70
2019-01-13T16:52:32.801Z,6.80
2019-01-13T16:54:59.561Z,6.80
2019-01-13T16:57:26.431Z,6.80
2019-01-13T16:59:53.676Z,6.80
2019-01-13T17:02:20.749Z,6.90
2019-01-13T17:04:47.660Z,6.80
2019-01-13T17:07:15.117Z,6.80
2019-01-13T17:09:42.119Z,6.90
2019-01-13T17:12:09.132Z,6.80
2019-01-13T17:14:36.440Z,6.80
2019-01-13T17:17:03.689Z,7.00
2019-01-13T17:19:30.685Z,7.00
2019-01-13T17:21:57.452Z,6.90
2019-01-13T17:24:24.509Z,6.90
2019-01-13T17:26:51.824Z,6.90
2019-01-13T17:29:18.613Z,6.90
2019-01-13T17:31:45.481Z,6.60
2019-01-13T17:34:12.299Z,6.90
2019-01-13T17:36:39.360Z,6.90
2019-01-13T17:39:07.622Z,6.90
2019-01-13T17:41:35.202Z,6.90
2019-01-13T17:44:02.417Z,6.80
2019-01-13T17:46:29.202Z,6.80
2019-01-13T17:48:56.071Z,6.80
2019-01-13T17:51:23.432Z,6.80
2019-01-13T17:53:50.288Z,6.70
2019-01-13T17:56:17.273Z,6.70
2019-01-13T17:58:44.653Z,6.70
2019-01-13T18:01:35.947Z,6.70
2019-01-13T18:04:02.967Z,6.70
2019-01-13T18:06:29.803Z,6.70
2019-01-13T18:08:56.686Z,6.70
2019-01-13T18:11:23.636Z,6.80
2019-01-13T18:13:50.990Z,6.80
2019-01-13T18:16:18.100Z,6.80
2019-01-13T18:21:12.437Z,6.90
2019-01-13T18:23:39.513Z,6.90
2019-01-13T18:26:06.850Z,6.90
2019-01-13T18:28:33.981Z,7.00
2019-01-13T18:31:00.932Z,7.00
2019-01-13T18:33:27.979Z,6.90
2019-01-13T18:38:21.977Z,7.00
2019-01-13T18:40:48.764Z,7.00
2019-01-13T18:43:15.793Z,7.00
2019-01-13T18:45:42.894Z,7.00
2019-01-13T18:50:36.914Z,7.00
2019-01-13T18:53:06.124Z,7.10
2019-01-13T18:55:34.567Z,6.90
2019-01-13T19:00:28.842Z,7.00
2019-01-13T19:02:55.766Z,7.00
2019-01-13T19:05:23.229Z,7.10
2019-01-13T19:07:50.454Z,7.00
2019-01-13T19:10:32.833Z,7.00
2019-01-13T19:13:17.251Z,7.10
2019-01-13T19:15:45.817Z,7.10
2019-01-13T19:18:12.834Z,7.10
2019-01-13T19:20:39.691Z,7.10
2019-01-13T19:23:09.533Z,7.10
2019-01-13T19:25:36.878Z,7.10
2019-01-13T19:28:04.062Z,7.20
2019-01-13T19:30:31.085Z,7.20
2019-01-13T19:32:58.414Z,7.20
2019-01-13T19:35:25.605Z,7.20
2019-01-13T19:37:52.557Z,7.20
2019-01-13T19:40:19.463Z,7.20
2019-01-13T19:42:46.590Z,7.10
2019-01-13T19:45:15.446Z,7.20
2019-01-13T19:47:42.611Z,7.30
2019-01-13T19:50:12.150Z,7.30
2019-01-13T19:52:40.473Z,7.30
2019-01-13T19:55:09.996Z,7.30
2019-01-13T19:57:37.122Z,7.20
2019-01-13T20:00:07.556Z,7.10
2019-01-13T20:02:34.494Z,7.10
2019-01-13T20:05:01.599Z,7.10
2019-01-13T20:07:30.600Z,7.10
2019-01-13T20:09:57.852Z,7.10
2019-01-13T20:12:24.867Z,7.20
2019-01-13T20:14:52.180Z,7.10
2019-01-13T20:17:19.194Z,7.20
2019-01-13T20:19:46.381Z,7.20
2019-01-13T20:22:13.760Z,7.20
2019-01-13T20:24:40.872Z,7.10
2019-01-13T20:27:07.910Z,7.30
2019-01-13T20:29:34.961Z,7.20
2019-01-13T20:32:02.469Z,7.30
2019-01-13T20:34:29.641Z,7.10
2019-01-13T20:36:56.406Z,7.10
2019-01-13T20:39:23.314Z,7.10
2019-01-13T20:44:17.231Z,7.10
2019-01-13T20:46:44.605Z,7.00
2019-01-13T20:49:12.028Z,7.10
2019-01-13T20:51:39.099Z,7.10
2019-01-13T20:54:07.983Z,7.00
2019-01-13T20:56:35.249Z,7.00
2019-01-13T20:59:02.152Z,6.90
2019-01-13T21:01:29.145Z,6.70
2019-01-13T21:06:23.292Z,6.90
2019-01-13T21:08:50.474Z,6.90
2019-01-13T21:11:17.713Z,6.90
2019-01-13T21:13:44.477Z,6.80
2019-01-13T21:16:11.458Z,6.90
2019-01-13T21:18:38.341Z,6.90
2019-01-13T21:21:05.463Z,6.90
2019-01-13T21:23:32.509Z,6.90
2019-01-13T21:28:26.693Z,7.10
2019-01-13T21:30:54.133Z,7.00
2019-01-13T21:33:21.333Z,7.00
2019-01-13T21:35:48.594Z,7.10
2019-01-13T21:38:15.847Z,7.00
2019-01-13T21:40:42.721Z,7.10
2019-01-13T21:43:09.835Z,7.10
2019-01-13T21:45:36.704Z,7.10
2019-01-13T21:57:51.979Z,7.10
2019-01-13T22:02:47.850Z,7.00
2019-01-13T22:05:14.929Z,7.00
2019-01-13T22:07:42.160Z,7.00
2019-01-13T22:10:11.746Z,6.90
2019-01-13T22:15:07.750Z,6.90
2019-01-13T22:17:34.630Z,6.90
2019-01-13T22:20:02.012Z,6.80
2019-01-13T22:24:56.358Z,6.80
2019-01-13T22:27:23.606Z,6.80
2019-01-13T22:39:39.326Z,5.20
2019-01-13T22:42:06.326Z,5.10
2019-01-13T22:44:33.747Z,5.10
2019-01-13T22:47:00.957Z,5.00
2019-01-13T22:49:27.888Z,5.10
2019-01-13T22:51:54.993Z,5.20
2019-01-13T22:54:21.971Z,5.20
2019-01-13T22:56:48.849Z,5.30
2019-01-13T22:59:15.866Z,5.20
2019-01-13T23:01:44.477Z,5.20
2019-01-13T23:04:15.609Z,5.20
2019-01-13T23:06:42.683Z,5.30
2019-01-13T23:09:11.030Z,5.40
2019-01-13T23:11:37.856Z,5.30
2019-01-13T23:14:06.783Z,5.20
2019-01-13T23:16:33.881Z,5.30
2019-01-13T23:19:00.645Z,5.20
2019-01-13T23:21:27.421Z,5.30
2019-01-13T23:23:54.289Z,5.10
2019-01-13T23:26:21.254Z,5.00
2019-01-13T23:28:48.539Z,5.00
2019-01-13T23:31:15.807Z,5.20
2019-01-13T23:33:42.569Z,5.30
2019-01-13T23:36:09.817Z,5.30
2019-01-13T23:38:36.688Z,5.30
2019-01-13T23:41:03.701Z,5.30
2019-01-13T23:43:30.846Z,5.20
2019-01-13T23:45:57.877Z,5.30
2019-01-13T23:48:24.858Z,5.20
2019-01-13T23:50:51.933Z,5.30
2019-01-13T23:53:18.715Z,5.50
2019-01-13T23:55:45.739Z,5.40
2019-01-13T23:58:12.753Z,5.40
